The ORS Int. is the official adjudicator of ocean rowing records for Guinness World Records

 


Row Progress Maps and Charts

 

 AVALON

 

Indian Ocean 2014

                                                                                           Photo credit to Richard Rossiter Photography, Geraldton


 

 
DAY DATE TIME (GMT) HOURS AT SEA DISTANCE TO SEYCHELLES  VICTORIA HARBOUR, MAHE AVERAGE SPEED
(KNOTS)
56 06.08 04:06:0000 1346 103 miles (166 km) (89 nm) 2,65
    04:12:0000 1352 85 miles (137 km) (74 nm) 2,65
    04:16:0000 1356 72 miles (116 km) (63 nm) 2,65
    04:20:0000 1360 60 miles (97 km) (52 nm) 2,65
57 07.08 04:00:1500 1364 47 miles (75 km) (40 nm) 2,65
    04:04:0000 1368 35 miles (56 km) (30 nm) 2,65
    04:06:1500 1370 28 miles (45 km) (24 nm) 2,65
    04:08:0000 1372 23 miles (37 km) (20 nm) 2,65
    04:09:3000 1373 19 miles (30 km) (16 nm) 2,65
    04:11:0800 1375 14 miles (22 km) (12 nm) 2,65
    04:12:0000 1376 11 miles (17 km) (9 nm) 2,65
    04:13:2200 1377 6 miles (10 km) (5 nm) 2,65
    04:14:0000 1378 4 miles (7 km) (4 nm) 2,65
    04:14:5800 1379 0 miles (0 km) (0 nm) 2,65
    04:06:1500 1370 28 miles (45 km) (24 nm) 2,65
Note: The previous speed record for rowing the Indian Ocean in traditional boat belonged to "tRIO" that rowed
from Geraldton, WA. to Mauritius between June 9 - August 5, 2013 at average speed
2,27 Knots 

With this average speed the time of crossing from Geraldton, WA. to Victoria, Mahe would be 67 days.
         

 
 

 
This map is updated every 12 hours at 4 am  and 4 pm (Time is GMT)

To view the progress of the previous 50 days click here >>>
 

Note: Current speed record for rowing the Indian Ocean in traditional boat belongs to "tRIO" that rowed
from Geraldton, WA. to Mauritius between June 9 - August 5, 2013 at average speed
2,27 Knots 

With this average speed the time of crossing from Geraldton, WA. to Victoria, Mahe would be 67 days.
         


 

Click here to view the progress map of the first half of the journey >>>
 

Note: the maps above and below are updated once in 24 hours (positions at 04:00GMT)
A red dot
marks every fifth day.


Distance from Geraldton, Western Australia 
to Seychelles Yacht Club, Victoria, Mahe
 as the crow flies is 
4208 miles (6772 km) (3656 nautical miles)


Row began June 11, 2014 at 04:00 GMT         Row finished August 7, 2014 at 14:58 GMT

Day 57- Aug 07, 2014 (04:00GMT) 04:58.57S 055:48.92E 69 miles (110 km) (60n/miles)
   
Miles/Km rowed to date 4579 miles (7367 km) (3977 n/miles)
Miles/km from Geraldton 4208 miles (6772 km) (3656 n/miles)
Miles/km to Victoria, Mahe, Seychelles                         0 miles (0 km) (0 n/miles)  


Day/Date  Latitude Longitude Progress
(time is GMT) (degrees/minutes/seconds) (degrees/minutes/seconds) (miles,km,nautical miles)
             Aug 07, 2014 (14:58GMT) 04:37:29S 055:27:20E 35 miles (56 km) (30 n/miles)
Day 57- Aug 07, 2014 (04:00GMT) 04:58.57S 055:48.92E 69 miles (110 km) (60 n/miles)
Day 56- Aug 06, 2014 (06:00GMT) 05:47.02S 056:24.02E 69 miles (111 km) (60 n/miles)
Day 55- Aug 05, 2014 (04:00GMT) 06:35.89S 056:59.08E 73 miles (118 km) (63 n/miles)
Day 54- Aug 04, 2014 (04:00GMT) 07:24.91S 057:39.93E 73 miles (118 km) (64 n/miles)
Day 53- Aug 03, 2014 (04:00GMT) 08:10.75S 058:24.49E 65 miles (104 km) (56 n/miles)
Day 52- Aug 02, 2014 (04:00GMT) 08:53.84S 059:01.20E 51 miles (82 km) (45 n/miles)
Day 51- Aug 01, 2014 (04:00GMT) 09:36.28S 059:15.37E 55 miles (88 km) (47 n/miles)
Day 50- July 31, 2014 (04:00GMT) 10:15:50S 059:42:07E      62 miles (99 km) (54 n/miles) est.
Day 49- July 30, 2014 (04:00GMT) 10:57.74S 060:16.35E 61 miles (99 km) (53 n/miles)
Day 48- July 29, 2014 (04:00GMT) 11 35.24S 060 55.21E 84 miles (134 km) (73 n/miles)
Day 47- July 28, 2014 (04:00GMT) 11:22.51S 062:07.99E 90 miles (145 km) (78 n/miles)
Day 46- July 27, 2014 (04:00GMT) 11:13.94S 063:27.24E 94 miles (152 km) (82 n/miles)
Day 45- July 26, 2014 (04:00GMT) 11:02.82S 064:50.00E 84 miles (135 km) (73 n/miles)
Day 44- July 25, 2014 (04:00GMT) 10:59.56S 066:04.16E 86 miles (138 km) (74 n/miles)
Day 43- July 24, 2014 (04:00GMT) 10:55.20S 067:19.69E 77 miles (123 km) (67 n/miles)
Day 42- July 23, 2014 (04:00GMT) 10:52.63S 068:27.26E 80 miles (128 km) (69 n/miles)
Day 41- July 22, 2014 (04:00GMT) 10:42.37S 069:36.86E 82 miles (132 km) (72 n/miles)
Day 40- July 21, 2014 (04:00GMT) 10:35.93S 070:49.19E 88 miles (142 km) (76 n/miles)
Day 39- July 20, 2014 (04:00GMT) 10:44.79S 072:06.47E 87 miles (141 km) (76 n/miles)
Day 38- July 19, 2014 (04:00GMT) 11:02.51S 073:21.61E 76 miles (122 km) (66 n/miles)
Day 37- July 18, 2014 (04:00GMT) 11:18.81S 074:26.60E 70 miles (112 km) (60 n/miles)
Day 36- July 17, 2014 (04:00GMT) 11:31.99S 075:26.71E 78 miles (125 km) (68 n/miles)
Day 35- July 16, 2014 (04:00GMT) 11:43.32S 076:34.59E 72 miles (115 km) (62 n/miles)
Day 34- July 15, 2014 (04:00GMT) 11:48.56S 077:37.90E 85 miles (137 km) (74 n/miles)
Day 33- July 14, 2014 (04:00GMT) 11:54.62S 078:53.24E 84 miles (136 km) (73 n/miles)
Day 32- July 13, 2014 (04:00GMT) 11:59.87S 080:07.93E 70 miles (113 km) (61 n/miles)
Day 31- July 12, 2014 (04:00GMT) 12:08.48S 081:09.58E 85 miles (136 km) (73 n/miles)
Day 30- July 11, 2014 (04:00GMT) 12:17.02S 082:24.13E 86 miles (138 km) (75 n/miles)
Day 29- July 10, 2014 (04:00GMT) 12:46.45S 083:34.35E 96 miles (154 km) (83 n/miles)
Day 28- July 09, 2014 (04:00GMT) 13:20.70S 084:52.13E 91 miles (147 km) (79 n/miles)
Day 27- July 08, 2014 (04:00GMT) 13:44.64S 086:09.62E 103 miles (166 km) (90 n/miles)
Day 26- July 07, 2014 (04:00GMT) 14:15.36S 087:36.06E 103 miles (166 km) (90 n/miles)
Day 25- July 06, 2014 (04:00GMT) 14:48.99S 089:01.92E 101 miles (162 km) (88 n/miles)
Day 24- July 05, 2014 (04:00GMT) 15:31.97S 090:21.00E 80 miles (129 km) (70 n/miles)
Day 23- July 04, 2014 (04:00GMT) 15:54.79S 091:29.45E 89 miles (144 km) (78 n/miles)
Day 22- July 03, 2014 (04:00GMT) 16:33.02S 092:39.90E 88 miles (141 km) (76 n/miles)
Day 21- July 02, 2014 (04:00GMT) 16:57.89S 093:55.12E 94 miles (151 km) (81 n/miles)
Day 20- July 01, 2014 (04:00GMT) 17:42.56S 095:06.32E 85 miles (137 km) (74 n/miles)
Day 19- June 30, 2014 (04:00GMT) 18:06.96S 096:19.56E 82 miles (131 km) (71 n/miles)
Day 18- June 29, 2014 (04:00GMT) 18:42.23S 097:24.26E 48 miles (78 km) (42  n/miles)
Day 17- June 28, 2014 (04:00GMT) 19:10.93S 097:56.75E 75 miles (121 km) (65  n/miles)
Day 16- June 27, 2014 (04:00GMT) 19:25.15S 099:04.36E 73 miles (118 km) (64  n/miles)
Day 15- June 26, 2014 (06:00GMT) 19:51.68S 100:05.58E 87 miles (140 km) (75  n/miles)
Day 14- June 25, 2014 (04:00GMT) 20:28.21S 101:15.72E 79 miles (127 km) (69  n/miles)
Day 13- June 24, 2014 (04:00GMT) 20:57.93S 102:22.01E 79 miles (127 km) (69  n/miles)
Day 12- June 23, 2014 (04:00GMT) 21:23.82S 103:30.13E 111 miles (178 km) ( 96  n/miles)
Day 11- June 22, 2014 (04:00GMT) 22:20.88S 104:53.40E 115 miles (186 km) (100 n/miles)
Day 10- June 21, 2014 (04:00GMT) 23:50.11S 105:43.59E 39 miles (62 km) (34 n/miles)
Day 9 - June 20, 2014 (04:00GMT) 24:18.70S 106:02.87E 72 miles (115 km) (62 n/miles)
Day 8 - June 19, 2014 (04:00GMT) 24:53.17S 106:59.69E 75 miles (121 km) (65 n/miles)
Day 7 - June 18, 2014 (04:00GMT) 25:47.65S 107:39.84E 50 miles (80 km) (43 n/miles)
Day 6 - June 17, 2014 (04:00GMT) 26:30.52S 107:46.54E 22 miles (36 km) (19 n/miles)
Day 5 - June 16, 2014 (04:00GMT) 26:16.67S 107:31.60E 53 miles (86 km) (46 n/miles)
Day 4 - June 15, 2014 (04:00GMT) 26:32.65S 108:20.14E 97 miles (156 km) (84 n/miles)
Day 3 - June 14, 2014 (04:00GMT) 27:03.77S 109:47.42E 110 miles (177 km) (96 n/miles)
Day 2 - June 13, 2014 (04:00GMT) 27:29.40S 111:30.80E 109 miles (176 km) (95 n/miles)
Day 1 - June 12, 2014 (04:00GMT) 27:55.35S 113:13.54E 102 miles (165 km) (89 n/miles)
Start day - June 11, 2014 (04:00GMT) 28:45:53S 114:36:38E Start day